createdAt,value
2022-11-03T00:01:35.663Z,0.60
2022-11-03T00:04:03.997Z,1.15
2022-11-03T00:06:32.545Z,1.17
2022-11-03T00:09:01.318Z,0.90
2022-11-03T00:11:29.847Z,0.82
2022-11-03T00:13:59.461Z,0.93
2022-11-03T00:16:30.138Z,0.60
2022-11-03T00:18:58.519Z,0.98
2022-11-03T00:21:26.933Z,1.40
2022-11-03T00:23:55.518Z,0.65
2022-11-03T00:26:24.527Z,0.82
2022-11-03T00:28:53.579Z,0.65
2022-11-03T00:31:23.997Z,0.73
2022-11-03T00:33:52.385Z,0.75
2022-11-03T00:36:21.922Z,0.88
2022-11-03T00:38:50.226Z,0.80
2022-11-03T00:41:20.632Z,0.60
2022-11-03T00:43:49.015Z,0.73
2022-11-03T00:46:17.306Z,0.55
2022-11-03T00:48:46.943Z,0.68
2022-11-03T00:51:16.021Z,0.75
2022-11-03T00:53:45.315Z,0.90
2022-11-03T00:56:15.511Z,0.95
2022-11-03T00:58:44.262Z,1.33
2022-11-03T01:01:13.456Z,1.38
2022-11-03T01:04:03.132Z,0.90
2022-11-03T01:06:50.336Z,0.55
2022-11-03T01:09:18.787Z,1.00
2022-11-03T01:11:52.328Z,1.17
2022-11-03T01:14:20.657Z,0.68
2022-11-03T01:16:49.053Z,0.70
2022-11-03T01:19:17.345Z,1.65
2022-11-03T01:21:48.821Z,1.00
2022-11-03T01:24:17.320Z,0.82
2022-11-03T01:26:45.613Z,0.38
2022-11-03T01:29:14.178Z,0.98
2022-11-03T01:31:42.452Z,0.88
2022-11-03T01:34:11.819Z,0.77
2022-11-03T01:36:42.003Z,1.08
2022-11-03T01:39:12.968Z,1.15
2022-11-03T01:41:41.751Z,0.93
2022-11-03T01:44:27.311Z,0.90
2022-11-03T01:46:57.303Z,0.95
2022-11-03T01:49:27.503Z,1.13
2022-11-03T01:51:57.603Z,0.85
2022-11-03T01:54:28.149Z,0.60
2022-11-03T01:56:56.565Z,0.88
2022-11-03T01:59:25.832Z,0.35
2022-11-03T02:01:54.209Z,1.25
2022-11-03T02:04:24.354Z,1.17
2022-11-03T02:06:55.105Z,0.70
2022-11-03T02:09:23.965Z,0.52
2022-11-03T02:12:09.504Z,0.60
2022-11-03T02:14:39.070Z,0.70
2022-11-03T02:17:09.417Z,1.10
2022-11-03T02:19:39.824Z,0.55
2022-11-03T02:22:16.693Z,0.65
2022-11-03T02:24:52.972Z,0.63
2022-11-03T02:27:24.073Z,0.43
2022-11-03T02:29:57.519Z,0.40
2022-11-03T02:32:27.327Z,0.32
2022-11-03T02:34:57.991Z,0.90
2022-11-03T02:37:30.203Z,0.50
2022-11-03T02:39:59.696Z,0.98
2022-11-03T02:42:29.841Z,0.55
2022-11-03T02:45:00.544Z,0.50
2022-11-03T02:47:30.144Z,0.35
2022-11-03T02:49:58.452Z,0.43
2022-11-03T02:52:36.139Z,0.70
2022-11-03T02:55:08.173Z,1.08
2022-11-03T02:57:40.516Z,0.98
2022-11-03T03:02:56.986Z,0.88
2022-11-03T03:05:27.040Z,0.50
2022-11-03T03:07:58.135Z,0.40
2022-11-03T03:10:28.284Z,0.65
2022-11-03T03:12:59.524Z,1.10
2022-11-03T03:15:31.983Z,0.65
2022-11-03T03:18:03.107Z,0.57
2022-11-03T03:20:33.968Z,1.17
2022-11-03T03:23:08.926Z,1.20
2022-11-03T03:25:41.463Z,0.60
2022-11-03T03:33:23.466Z,0.52
2022-11-03T03:35:52.975Z,0.88
2022-11-03T03:38:22.983Z,0.68
2022-11-03T03:40:53.697Z,0.90
2022-11-03T03:43:24.441Z,0.38
2022-11-03T03:45:54.251Z,0.98
2022-11-03T03:48:23.154Z,0.82
2022-11-03T03:50:51.572Z,0.93
2022-11-03T03:53:20.704Z,1.00
2022-11-03T03:55:50.449Z,0.77
2022-11-03T03:58:19.059Z,1.30
2022-11-03T04:00:48.802Z,0.90
2022-11-03T04:03:18.637Z,0.90
2022-11-03T04:05:47.344Z,0.80
2022-11-03T04:08:20.035Z,0.85
2022-11-03T04:11:02.300Z,0.90
2022-11-03T04:13:48.084Z,0.50
2022-11-03T04:16:35.171Z,0.85
2022-11-03T04:19:23.283Z,1.10
2022-11-03T04:22:09.088Z,1.48
2022-11-03T04:24:38.632Z,0.50
2022-11-03T04:27:12.607Z,0.52
2022-11-03T04:29:40.907Z,1.03
2022-11-03T04:32:13.954Z,0.98
2022-11-03T04:34:42.981Z,0.85
2022-11-03T04:37:11.949Z,0.70
2022-11-03T04:39:40.227Z,0.65
2022-11-03T04:42:14.993Z,1.35
2022-11-03T04:44:43.263Z,1.52
2022-11-03T04:47:13.850Z,1.13
2022-11-03T04:49:42.443Z,0.93
2022-11-03T04:52:14.782Z,0.98
2022-11-03T04:54:43.057Z,1.20
2022-11-03T04:57:13.555Z,0.70
2022-11-03T04:59:42.158Z,0.40
2022-11-03T05:02:14.039Z,0.60
2022-11-03T05:04:42.458Z,0.52
2022-11-03T05:07:20.001Z,0.30
2022-11-03T05:09:48.233Z,0.70
2022-11-03T05:12:16.884Z,0.85
2022-11-03T05:14:45.275Z,0.70
2022-11-03T05:17:26.976Z,0.52
2022-11-03T05:19:57.581Z,0.52
2022-11-03T05:22:26.919Z,0.82
2022-11-03T05:24:58.021Z,0.50
2022-11-03T05:27:26.440Z,1.20
2022-11-03T05:29:57.962Z,0.57
2022-11-03T05:32:31.894Z,0.22
2022-11-03T05:35:00.293Z,0.73
2022-11-03T05:37:30.056Z,0.50
2022-11-03T05:39:59.920Z,0.60
2022-11-03T05:42:32.063Z,0.95
2022-11-03T05:45:02.185Z,0.55
2022-11-03T05:47:34.351Z,0.50
2022-11-03T05:50:04.899Z,0.90
2022-11-03T05:52:33.149Z,0.73
2022-11-03T05:55:02.110Z,0.65
2022-11-03T05:57:31.483Z,0.90
2022-11-03T06:00:00.150Z,0.90
2022-11-03T06:02:35.230Z,1.35
2022-11-03T06:05:05.292Z,1.13
2022-11-03T06:07:33.678Z,1.35
2022-11-03T06:10:01.972Z,0.52
2022-11-03T06:12:34.873Z,0.77
2022-11-03T06:15:03.200Z,0.77
2022-11-03T06:17:31.438Z,1.05
2022-11-03T06:20:00.525Z,1.88
2022-11-03T06:22:31.477Z,1.25
2022-11-03T06:25:01.638Z,0.50
2022-11-03T06:27:31.522Z,1.85
2022-11-03T06:30:01.034Z,1.40
2022-11-03T06:32:31.183Z,1.35
2022-11-03T06:35:00.371Z,0.90
2022-11-03T06:37:33.503Z,1.75
2022-11-03T06:40:02.291Z,1.02
2022-11-03T06:42:33.452Z,1.02
2022-11-03T06:45:03.759Z,1.40
2022-11-03T06:47:32.387Z,1.10
2022-11-03T06:50:01.785Z,0.90
2022-11-03T06:52:35.666Z,1.73
2022-11-03T06:55:17.132Z,1.17
2022-11-03T06:57:47.567Z,1.25
2022-11-03T07:00:37.019Z,1.67
2022-11-03T07:03:11.887Z,1.55
2022-11-03T07:05:40.651Z,1.08
2022-11-03T07:08:16.637Z,1.30
2022-11-03T07:10:44.974Z,1.02
2022-11-03T07:13:16.043Z,1.33
2022-11-03T07:15:45.663Z,1.85
2022-11-03T07:18:17.591Z,0.98
2022-11-03T07:20:47.590Z,1.48
2022-11-03T07:23:20.031Z,0.93
2022-11-03T07:25:50.945Z,1.23
2022-11-03T07:28:19.402Z,0.85
2022-11-03T07:30:47.748Z,1.00
2022-11-03T07:33:18.813Z,0.73
2022-11-03T07:36:13.713Z,0.80
2022-11-03T07:38:40.366Z,1.05
2022-11-03T07:41:14.253Z,1.02
2022-11-03T07:43:42.966Z,1.33
2022-11-03T07:46:15.579Z,0.95
2022-11-03T07:48:46.162Z,1.15
2022-11-03T07:51:17.959Z,1.02
2022-11-03T07:53:48.743Z,1.02
2022-11-03T07:56:20.962Z,1.05
2022-11-03T07:58:51.062Z,1.25
2022-11-03T08:01:25.309Z,1.42
2022-11-03T08:03:53.745Z,1.13
2022-11-03T08:06:22.380Z,1.42
2022-11-03T08:08:52.105Z,0.93
2022-11-03T08:11:24.672Z,0.98
2022-11-03T08:13:56.318Z,1.42
2022-11-03T08:16:24.848Z,0.85
2022-11-03T08:18:53.878Z,1.30
2022-11-03T08:21:22.509Z,1.75
2022-11-03T08:23:52.436Z,2.42
2022-11-03T08:26:21.045Z,1.90
2022-11-03T08:28:49.515Z,0.60
2022-11-03T08:31:17.867Z,1.55
2022-11-03T08:33:46.723Z,1.30
2022-11-03T08:36:15.368Z,1.38
2022-11-03T08:38:43.862Z,1.58
2022-11-03T08:41:13.829Z,1.85
2022-11-03T08:43:42.274Z,1.33
2022-11-03T08:46:17.831Z,0.90
2022-11-03T08:48:46.959Z,1.60
2022-11-03T08:51:15.418Z,1.65
2022-11-03T08:53:44.250Z,0.93
2022-11-03T08:56:17.012Z,1.67
2022-11-03T08:58:47.832Z,1.55
2022-11-03T09:01:16.591Z,1.30
2022-11-03T09:03:45.310Z,1.30
2022-11-03T09:06:14.188Z,0.65
2022-11-03T09:11:34.198Z,0.75
2022-11-03T09:14:02.920Z,0.82
2022-11-03T09:16:31.722Z,1.02
2022-11-03T09:19:00.199Z,1.27
2022-11-03T09:21:28.849Z,0.93
2022-11-03T09:23:59.414Z,1.13
2022-11-03T09:26:28.132Z,1.63
2022-11-03T09:28:58.394Z,1.52
2022-11-03T09:31:28.604Z,1.52
2022-11-03T09:33:57.435Z,2.30
2022-11-03T09:36:25.982Z,1.35
2022-11-03T09:38:54.594Z,0.90
2022-11-03T09:41:27.779Z,0.82
2022-11-03T09:44:06.297Z,1.67
2022-11-03T09:46:37.155Z,1.73
2022-11-03T09:49:07.075Z,1.13
2022-11-03T09:51:37.230Z,1.00
2022-11-03T09:54:06.823Z,1.17
2022-11-03T09:56:38.169Z,1.58
2022-11-03T09:59:12.834Z,1.10
2022-11-03T10:01:42.180Z,1.08
2022-11-03T10:04:12.606Z,1.02
2022-11-03T10:06:41.243Z,1.17
2022-11-03T10:09:12.641Z,1.27
2022-11-03T10:11:41.284Z,0.90
2022-11-03T10:14:13.710Z,0.70
2022-11-03T10:16:43.125Z,1.05
2022-11-03T10:19:14.046Z,1.10
2022-11-03T10:21:43.350Z,0.93
2022-11-03T10:24:13.012Z,0.90
2022-11-03T10:26:45.487Z,0.93
2022-11-03T10:29:21.009Z,1.27
2022-11-03T10:31:53.464Z,0.70
2022-11-03T10:34:42.577Z,1.58
2022-11-03T10:37:12.648Z,1.10
2022-11-03T10:39:41.515Z,0.82
2022-11-03T10:42:18.183Z,0.68
2022-11-03T10:44:48.078Z,0.85
2022-11-03T10:47:24.992Z,0.88
2022-11-03T10:49:54.967Z,0.80
2022-11-03T10:52:24.105Z,1.15
2022-11-03T10:54:53.532Z,0.90
2022-11-03T10:57:22.846Z,1.10
2022-11-03T10:59:53.200Z,1.00
2022-11-03T11:02:22.535Z,1.45
2022-11-03T11:04:51.505Z,0.85
2022-11-03T11:07:21.594Z,0.90
2022-11-03T11:09:50.327Z,0.95
2022-11-03T11:12:23.006Z,1.20
2022-11-03T11:15:01.671Z,1.08
2022-11-03T11:17:47.373Z,0.93
2022-11-03T11:20:22.105Z,0.80
2022-11-03T11:22:52.723Z,0.90
2022-11-03T11:25:21.507Z,0.85
2022-11-03T11:28:07.428Z,0.90
2022-11-03T11:30:53.688Z,1.02
2022-11-03T11:33:25.848Z,1.20
2022-11-03T11:36:09.076Z,1.13
2022-11-03T11:38:47.821Z,0.63
2022-11-03T11:41:16.341Z,1.10
2022-11-03T11:43:44.888Z,1.33
2022-11-03T11:46:40.057Z,1.92
2022-11-03T11:49:20.413Z,1.15
2022-11-03T11:51:49.119Z,1.20
2022-11-03T11:54:19.308Z,1.10
2022-11-03T11:56:48.519Z,1.20
2022-11-03T11:59:24.006Z,1.08
2022-11-03T12:01:54.274Z,0.90
2022-11-03T12:04:25.875Z,0.98
2022-11-03T12:06:55.906Z,0.75
2022-11-03T12:09:25.354Z,1.00
2022-11-03T12:11:56.454Z,1.35
2022-11-03T12:14:27.412Z,1.17
2022-11-03T12:16:56.315Z,1.20
2022-11-03T12:19:39.972Z,1.00
2022-11-03T12:22:09.592Z,1.30
2022-11-03T12:24:48.538Z,1.00
2022-11-03T12:27:21.496Z,1.35
2022-11-03T12:29:49.791Z,1.00
2022-11-03T12:32:32.971Z,1.63
2022-11-03T12:35:04.047Z,1.20
2022-11-03T12:37:32.555Z,1.20
2022-11-03T12:40:01.354Z,1.77
2022-11-03T12:42:29.978Z,1.27
2022-11-03T12:44:58.395Z,1.25
2022-11-03T12:47:26.858Z,1.48
2022-11-03T12:49:55.330Z,1.02
2022-11-03T12:52:25.502Z,1.88
2022-11-03T12:54:54.194Z,1.35
2022-11-03T12:57:25.289Z,1.52
2022-11-03T12:59:54.128Z,1.90
2022-11-03T13:02:22.617Z,1.60
2022-11-03T13:04:51.244Z,1.27
2022-11-03T13:07:27.751Z,1.38
2022-11-03T13:10:00.331Z,1.48
2022-11-03T13:12:37.103Z,1.52
2022-11-03T13:15:07.038Z,1.67
2022-11-03T13:17:59.306Z,1.13
2022-11-03T13:20:24.599Z,1.42
2022-11-03T13:22:54.171Z,0.70
2022-11-03T13:25:28.741Z,2.45
2022-11-03T13:27:58.012Z,1.48
2022-11-03T13:30:27.540Z,1.55
2022-11-03T13:32:56.361Z,1.40
2022-11-03T13:35:25.085Z,1.10
2022-11-03T13:37:53.701Z,1.88
2022-11-03T13:43:12.439Z,1.40
2022-11-03T13:45:40.860Z,1.77
2022-11-03T13:49:04.077Z,1.88
2022-11-03T13:51:00.196Z,1.65
2022-11-03T13:56:21.737Z,0.95
2022-11-03T14:01:41.896Z,2.03
2022-11-03T14:07:02.351Z,1.73
2022-11-03T14:09:30.890Z,1.60
2022-11-03T14:12:25.481Z,1.80
2022-11-03T14:14:55.571Z,2.17
2022-11-03T14:17:24.692Z,2.17
2022-11-03T14:19:56.582Z,1.33
2022-11-03T14:22:27.648Z,1.83
2022-11-03T14:24:56.054Z,1.75
2022-11-03T14:27:24.927Z,1.30
2022-11-03T14:29:54.811Z,1.25
2022-11-03T14:32:23.507Z,2.15
2022-11-03T14:34:51.994Z,1.80
2022-11-03T14:37:20.670Z,1.40
2022-11-03T14:39:49.322Z,1.27
2022-11-03T14:42:16.949Z,2.00
2022-11-03T14:44:48.285Z,1.77
2022-11-03T14:47:19.159Z,2.30
2022-11-03T14:49:48.356Z,1.45
2022-11-03T14:52:17.389Z,1.63
2022-11-03T14:54:45.871Z,1.30
2022-11-03T14:57:14.252Z,1.67
2022-11-03T14:59:48.043Z,1.17
2022-11-03T15:02:21.973Z,1.63
2022-11-03T15:04:50.440Z,1.65
2022-11-03T15:07:18.924Z,1.98
2022-11-03T15:09:47.269Z,2.00
2022-11-03T15:12:15.652Z,1.70
2022-11-03T15:14:44.252Z,2.10
2022-11-03T15:17:12.775Z,2.22
2022-11-03T15:19:43.214Z,2.08
2022-11-03T15:22:12.012Z,1.67
2022-11-03T15:27:28.871Z,1.75
2022-11-03T15:29:57.411Z,2.15
2022-11-03T15:32:26.595Z,1.63
2022-11-03T15:34:56.426Z,1.45
2022-11-03T15:37:25.090Z,2.50
2022-11-03T15:39:57.201Z,1.88
2022-11-03T15:42:28.113Z,1.77
2022-11-03T15:44:56.696Z,2.95
2022-11-03T15:47:25.112Z,2.28
2022-11-03T15:49:53.752Z,1.58
2022-11-03T15:52:24.707Z,2.28
2022-11-03T15:54:53.314Z,1.85
2022-11-03T15:57:21.739Z,1.83
2022-11-03T15:59:52.657Z,3.05
2022-11-03T16:05:12.132Z,2.00
2022-11-03T16:07:42.100Z,2.50
2022-11-03T16:10:10.681Z,1.73
2022-11-03T16:12:39.069Z,2.13
2022-11-03T16:15:09.466Z,1.67
2022-11-03T16:17:42.771Z,3.22
2022-11-03T16:20:13.964Z,1.70
2022-11-03T16:22:43.712Z,1.67
2022-11-03T16:25:16.652Z,1.77
2022-11-03T16:27:46.491Z,1.97
2022-11-03T16:30:15.064Z,1.80
2022-11-03T16:32:43.917Z,1.80
2022-11-03T16:35:12.238Z,2.72
2022-11-03T16:37:40.527Z,1.85
2022-11-03T16:40:16.219Z,1.60
2022-11-03T16:42:47.250Z,1.88
2022-11-03T16:45:17.799Z,1.42
2022-11-03T16:47:46.744Z,1.20
2022-11-03T16:50:16.220Z,2.10
2022-11-03T16:52:44.730Z,2.13
2022-11-03T16:55:15.278Z,2.33
2022-11-03T16:57:44.017Z,1.48
2022-11-03T17:00:13.689Z,1.50
2022-11-03T17:02:42.087Z,2.05
2022-11-03T17:05:11.340Z,2.00
2022-11-03T17:07:39.774Z,1.95
2022-11-03T17:10:08.960Z,1.55
2022-11-03T17:12:39.157Z,1.90
2022-11-03T17:15:08.175Z,1.25
2022-11-03T17:17:36.895Z,2.00
2022-11-03T17:20:05.741Z,1.70
2022-11-03T17:22:34.242Z,1.55
2022-11-03T17:25:02.791Z,1.17
2022-11-03T17:27:34.125Z,1.95
2022-11-03T17:30:07.144Z,1.63
2022-11-03T17:32:39.910Z,2.92
2022-11-03T17:35:15.841Z,1.77
2022-11-03T17:37:44.284Z,1.60
2022-11-03T17:40:16.740Z,2.17
2022-11-03T17:42:45.415Z,1.80
2022-11-03T17:45:15.803Z,1.33
2022-11-03T17:47:44.979Z,2.10
2022-11-03T17:50:15.361Z,1.45
2022-11-03T17:52:45.692Z,2.75
2022-11-03T17:55:20.141Z,1.23
2022-11-03T17:57:49.127Z,2.00
2022-11-03T18:00:22.191Z,1.65
2022-11-03T18:02:58.135Z,2.67
2022-11-03T18:05:28.883Z,1.10
2022-11-03T18:07:58.037Z,2.55
2022-11-03T18:10:28.443Z,1.90
2022-11-03T18:13:15.929Z,1.17
2022-11-03T18:15:47.820Z,1.63
2022-11-03T18:18:18.220Z,1.30
2022-11-03T18:20:52.913Z,1.92
2022-11-03T18:23:22.804Z,2.00
2022-11-03T18:25:51.561Z,2.47
2022-11-03T18:28:20.082Z,2.35
2022-11-03T18:30:50.386Z,1.90
2022-11-03T18:33:21.921Z,1.52
2022-11-03T18:35:50.261Z,1.55
2022-11-03T18:38:18.850Z,1.70
2022-11-03T18:40:47.206Z,1.80
2022-11-03T18:43:16.474Z,1.92
2022-11-03T18:45:44.966Z,2.47
2022-11-03T18:48:19.457Z,2.15
2022-11-03T18:50:48.596Z,2.40
2022-11-03T18:53:17.127Z,1.88
2022-11-03T18:55:45.466Z,2.67
2022-11-03T18:58:17.979Z,1.85
2022-11-03T19:00:46.428Z,2.28
2022-11-03T19:03:18.259Z,1.65
2022-11-03T19:05:47.742Z,1.70
2022-11-03T19:08:22.254Z,2.17
2022-11-03T19:10:50.733Z,1.88
2022-11-03T19:13:24.090Z,2.15
2022-11-03T19:15:53.178Z,1.60
2022-11-03T19:18:24.630Z,2.00
2022-11-03T19:20:56.845Z,2.10
2022-11-03T19:23:25.296Z,1.95
2022-11-03T19:25:55.583Z,2.67
2022-11-03T19:28:24.025Z,2.65
2022-11-03T19:30:57.638Z,1.77
2022-11-03T19:33:30.727Z,2.15
2022-11-03T19:35:59.264Z,1.88
2022-11-03T19:38:27.662Z,2.67
2022-11-03T19:41:13.836Z,1.48
2022-11-03T19:43:42.224Z,1.88
2022-11-03T19:46:12.548Z,2.17
2022-11-03T19:48:42.325Z,2.42
2022-11-03T19:51:10.698Z,1.98
2022-11-03T19:53:43.193Z,1.55
2022-11-03T19:56:15.476Z,2.47
2022-11-03T19:58:43.979Z,2.55
2022-11-03T20:01:12.433Z,2.38
2022-11-03T20:03:42.462Z,1.20
2022-11-03T20:06:14.162Z,2.78
2022-11-03T20:08:48.440Z,2.13
2022-11-03T20:11:16.979Z,2.67
2022-11-03T20:13:45.532Z,2.00
2022-11-03T20:16:14.732Z,1.88
2022-11-03T20:18:45.239Z,2.85
2022-11-03T20:21:16.282Z,2.17
2022-11-03T20:23:45.044Z,1.77
2022-11-03T20:26:15.167Z,1.67
2022-11-03T20:28:43.961Z,2.03
2022-11-03T20:31:13.421Z,2.63
2022-11-03T20:33:42.065Z,2.78
2022-11-03T20:36:15.547Z,1.67
2022-11-03T20:38:43.957Z,2.45
2022-11-03T20:41:14.841Z,2.17
2022-11-03T20:43:44.948Z,1.83
2022-11-03T20:46:23.789Z,2.13
2022-11-03T20:48:52.334Z,2.00
2022-11-03T20:51:23.195Z,2.08
2022-11-03T20:53:53.812Z,1.10
2022-11-03T20:56:23.216Z,2.13
2022-11-03T20:58:54.235Z,1.25
2022-11-03T21:01:26.006Z,1.55
2022-11-03T21:04:00.204Z,2.25
2022-11-03T21:06:30.862Z,2.72
2022-11-03T21:08:59.363Z,2.33
2022-11-03T21:11:29.481Z,2.00
2022-11-03T21:13:59.906Z,1.30
2022-11-03T21:16:46.946Z,1.73
2022-11-03T21:19:34.508Z,1.88
2022-11-03T21:22:04.560Z,1.85
2022-11-03T21:24:33.495Z,2.70
2022-11-03T21:27:01.866Z,2.17
2022-11-03T21:29:57.734Z,2.38
2022-11-03T21:32:19.116Z,2.58
2022-11-03T21:34:47.542Z,1.58
2022-11-03T21:37:17.547Z,2.20
2022-11-03T21:39:49.408Z,1.95
2022-11-03T21:42:31.941Z,1.83
2022-11-03T21:45:02.534Z,2.33
2022-11-03T21:47:33.421Z,2.53
2022-11-03T21:52:35.972Z,1.80
2022-11-03T21:55:11.841Z,1.98
2022-11-03T21:57:40.152Z,1.45
2022-11-03T22:00:09.485Z,2.03
2022-11-03T22:02:38.333Z,1.67
2022-11-03T22:05:10.761Z,2.20
2022-11-03T22:07:41.248Z,1.75
2022-11-03T22:10:10.326Z,1.33
2022-11-03T22:12:38.773Z,2.33
2022-11-03T22:15:25.096Z,1.52
2022-11-03T22:17:53.875Z,1.40
2022-11-03T22:20:40.185Z,1.48
2022-11-03T22:23:27.383Z,2.17
2022-11-03T22:26:13.423Z,1.58
2022-11-03T22:28:41.709Z,1.67
2022-11-03T22:31:33.011Z,2.38
2022-11-03T22:34:19.157Z,1.55
2022-11-03T22:36:47.473Z,1.42
2022-11-03T22:39:34.834Z,1.58
2022-11-03T22:42:20.668Z,1.85
2022-11-03T22:45:06.664Z,2.22
2022-11-03T22:47:36.316Z,1.70
2022-11-03T22:50:04.716Z,2.28
2022-11-03T22:52:33.166Z,1.73
2022-11-03T22:55:02.013Z,2.35
2022-11-03T22:57:30.396Z,2.25
2022-11-03T22:59:58.800Z,1.83
2022-11-03T23:02:27.245Z,1.92
2022-11-03T23:04:55.686Z,1.63
2022-11-03T23:07:29.951Z,3.13
2022-11-03T23:10:04.851Z,3.20
2022-11-03T23:12:34.849Z,2.28
2022-11-03T23:15:20.813Z,2.67
2022-11-03T23:18:06.731Z,3.17
2022-11-03T23:20:52.730Z,2.47
2022-11-03T23:23:34.879Z,1.60
2022-11-03T23:26:03.216Z,2.92
2022-11-03T23:28:37.249Z,2.20
2022-11-03T23:31:05.563Z,2.43
2022-11-03T23:33:33.877Z,2.13
2022-11-03T23:36:04.599Z,1.80
2022-11-03T23:38:33.404Z,1.70
2022-11-03T23:41:05.008Z,1.30
2022-11-03T23:43:34.985Z,0.80
2022-11-03T23:46:21.180Z,0.95
2022-11-03T23:48:49.850Z,1.10
2022-11-03T23:51:18.902Z,0.95
2022-11-03T23:53:47.485Z,1.73
2022-11-03T23:56:34.254Z,1.08
2022-11-03T23:59:04.104Z,1.15
